createdAt,value
2023-07-08T00:01:11.748Z,18.34
2023-07-08T00:03:38.464Z,18.38
2023-07-08T00:06:05.081Z,18.34
2023-07-08T00:08:31.537Z,18.25
2023-07-08T00:10:58.875Z,18.17
2023-07-08T00:13:27.928Z,18.10
2023-07-08T00:15:54.647Z,18.03
2023-07-08T00:18:21.405Z,18.01
2023-07-08T00:20:50.347Z,18.03
2023-07-08T00:23:17.680Z,18.17
2023-07-08T00:25:44.611Z,18.17
2023-07-08T00:28:14.936Z,18.24
2023-07-08T00:30:41.536Z,18.31
2023-07-08T00:33:08.371Z,18.42
2023-07-08T00:35:37.545Z,18.44
2023-07-08T00:38:28.275Z,18.49
2023-07-08T00:41:11.053Z,18.68
2023-07-08T00:43:39.061Z,18.86
2023-07-08T00:46:28.478Z,19.05
2023-07-08T00:49:15.375Z,19.38
2023-07-08T00:51:42.688Z,19.44
2023-07-08T00:54:13.995Z,19.52
2023-07-08T00:57:03.992Z,19.58
2023-07-08T00:59:33.082Z,19.52
2023-07-08T01:02:03.150Z,19.61
2023-07-08T01:04:36.081Z,19.92
2023-07-08T01:07:04.357Z,20.01
2023-07-08T01:09:43.079Z,19.88
2023-07-08T01:12:15.689Z,19.72
2023-07-08T01:14:44.418Z,19.70
2023-07-08T01:17:14.916Z,19.54
2023-07-08T01:19:46.018Z,19.41
2023-07-08T01:22:12.909Z,19.23
2023-07-08T01:24:44.563Z,19.13
2023-07-08T01:27:14.867Z,19.02
2023-07-08T01:29:41.778Z,18.97
2023-07-08T01:32:15.064Z,18.97
2023-07-08T01:34:41.579Z,19.00
2023-07-08T01:37:13.226Z,19.02
2023-07-08T01:39:39.834Z,18.90
2023-07-08T01:42:06.555Z,18.86
2023-07-08T01:44:35.444Z,18.84
2023-07-08T01:47:09.979Z,18.97
2023-07-08T01:49:39.658Z,18.90
2023-07-08T01:52:08.506Z,18.91
2023-07-08T01:54:35.096Z,18.91
2023-07-08T01:57:04.275Z,18.91
2023-07-08T01:59:30.768Z,18.89
2023-07-08T02:01:57.980Z,19.11
2023-07-08T02:04:26.003Z,19.13
2023-07-08T02:06:54.393Z,19.02
2023-07-08T02:09:21.725Z,18.93
2023-07-08T02:11:48.412Z,18.82
2023-07-08T02:14:15.535Z,18.70
2023-07-08T02:16:42.057Z,18.51
2023-07-08T02:19:09.058Z,18.45
2023-07-08T02:21:35.463Z,18.35
2023-07-08T02:24:02.773Z,18.30
2023-07-08T02:26:29.236Z,18.11
2023-07-08T02:28:55.715Z,18.07
2023-07-08T02:31:25.800Z,17.96
2023-07-08T02:33:53.200Z,17.81
2023-07-08T02:36:20.545Z,17.71
2023-07-08T02:38:47.037Z,17.66
2023-07-08T02:41:13.696Z,17.58
2023-07-08T02:43:40.489Z,17.53
2023-07-08T02:46:07.011Z,17.45
2023-07-08T02:48:33.864Z,17.39
2023-07-08T02:51:02.228Z,17.35
2023-07-08T02:53:29.023Z,17.29
2023-07-08T02:55:56.074Z,17.28
2023-07-08T02:58:22.588Z,17.22
2023-07-08T03:00:56.846Z,17.16
2023-07-08T03:03:23.931Z,17.06
2023-07-08T03:06:00.290Z,16.97
2023-07-08T03:08:28.283Z,16.92
2023-07-08T03:10:58.491Z,16.80
2023-07-08T03:13:26.200Z,16.69
2023-07-08T03:15:53.023Z,16.58
2023-07-08T03:18:22.372Z,16.56
2023-07-08T03:20:49.927Z,16.52
2023-07-08T03:23:16.900Z,16.48
2023-07-08T03:25:43.746Z,16.45
2023-07-08T03:28:16.277Z,16.42
2023-07-08T03:30:44.038Z,16.33
2023-07-08T03:33:11.413Z,16.21
2023-07-08T03:35:42.353Z,16.15
2023-07-08T03:38:08.796Z,16.11
2023-07-08T03:40:35.771Z,16.13
2023-07-08T03:43:02.626Z,16.16
2023-07-08T03:45:29.251Z,16.20
2023-07-08T03:47:55.924Z,16.17
2023-07-08T03:50:25.965Z,16.20
2023-07-08T03:52:54.379Z,16.18
2023-07-08T03:55:21.464Z,16.22
2023-07-08T03:57:49.086Z,16.25
2023-07-08T04:00:16.277Z,16.19
2023-07-08T04:02:44.354Z,16.15
2023-07-08T04:05:20.954Z,16.11
2023-07-08T04:07:48.743Z,16.07
2023-07-08T04:10:16.559Z,16.11
2023-07-08T04:12:43.896Z,16.05
2023-07-08T04:15:11.786Z,16.05
2023-07-08T04:17:46.366Z,16.12
2023-07-08T04:20:16.521Z,16.16
2023-07-08T04:22:43.385Z,16.22
2023-07-08T04:25:13.210Z,16.29
2023-07-08T04:27:40.860Z,16.36
2023-07-08T04:30:08.739Z,16.30
2023-07-08T04:32:35.791Z,16.28
2023-07-08T04:35:02.526Z,16.27
2023-07-08T04:37:29.033Z,16.31
2023-07-08T04:39:55.719Z,16.30
2023-07-08T04:42:22.244Z,16.39
2023-07-08T04:44:51.033Z,16.47
2023-07-08T04:47:17.811Z,16.55
2023-07-08T04:49:44.953Z,16.65
2023-07-08T04:52:11.774Z,16.67
2023-07-08T04:54:38.228Z,16.65
2023-07-08T04:57:05.906Z,16.65
2023-07-08T04:59:35.534Z,16.69
2023-07-08T05:02:02.854Z,16.66
2023-07-08T05:04:29.448Z,16.68
2023-07-08T05:06:56.552Z,16.79
2023-07-08T05:09:26.608Z,16.89
2023-07-08T05:11:54.030Z,17.00
2023-07-08T05:14:20.571Z,17.14
2023-07-08T05:16:47.287Z,17.43
2023-07-08T05:19:13.990Z,17.54
2023-07-08T05:21:41.002Z,19.15
2023-07-08T05:24:08.894Z,20.77
2023-07-08T05:26:35.551Z,20.77
2023-07-08T05:29:02.325Z,20.33
2023-07-08T05:33:59.449Z,20.19
2023-07-08T05:36:26.304Z,21.53
2023-07-08T05:38:52.758Z,22.27
2023-07-08T05:41:19.438Z,22.92
2023-07-08T05:43:47.707Z,23.47
2023-07-08T05:46:14.486Z,23.80
2023-07-08T05:48:41.582Z,24.08
2023-07-08T05:51:08.290Z,23.45
2023-07-08T05:53:34.944Z,22.90
2023-07-08T05:56:04.358Z,22.29
2023-07-08T05:58:31.102Z,22.80
2023-07-08T06:00:59.064Z,23.47
2023-07-08T06:03:26.496Z,24.19
2023-07-08T06:05:53.612Z,24.75
2023-07-08T06:08:20.920Z,25.25
2023-07-08T06:10:48.132Z,25.75
2023-07-08T06:13:14.870Z,26.06
2023-07-08T06:15:42.660Z,25.91
2023-07-08T06:18:09.505Z,26.14
2023-07-08T06:20:36.632Z,26.22
2023-07-08T06:23:03.945Z,26.60
2023-07-08T06:25:30.948Z,26.73
2023-07-08T06:27:57.487Z,26.55
2023-07-08T06:30:24.108Z,26.46
2023-07-08T06:32:50.667Z,26.15
2023-07-08T06:35:17.322Z,25.92
2023-07-08T06:37:44.136Z,25.92
2023-07-08T06:40:11.176Z,25.63
2023-07-08T06:42:37.783Z,25.42
2023-07-08T06:45:04.724Z,25.31
2023-07-08T06:47:31.254Z,25.32
2023-07-08T06:49:59.752Z,25.33
2023-07-08T06:52:27.386Z,25.37
2023-07-08T06:54:54.118Z,25.37
2023-07-08T06:57:20.532Z,25.30
2023-07-08T06:59:47.113Z,25.17
2023-07-08T07:02:14.464Z,25.23
2023-07-08T07:04:41.142Z,25.26
2023-07-08T07:07:07.693Z,25.19
2023-07-08T07:09:34.761Z,25.17
2023-07-08T07:12:01.496Z,25.22
2023-07-08T07:17:08.471Z,25.53
2023-07-08T07:19:36.091Z,25.58
2023-07-08T07:22:03.154Z,25.67
2023-07-08T07:24:30.676Z,25.76
2023-07-08T07:26:57.581Z,26.05
2023-07-08T07:29:25.015Z,26.20
2023-07-08T07:31:52.783Z,26.45
2023-07-08T07:34:19.969Z,26.80
2023-07-08T07:36:47.355Z,26.74
2023-07-08T07:39:14.177Z,26.49
2023-07-08T07:41:40.810Z,26.22
2023-07-08T07:44:08.170Z,25.99
2023-07-08T07:46:35.019Z,25.79
2023-07-08T07:49:02.896Z,25.74
2023-07-08T07:51:29.489Z,25.68
2023-07-08T07:53:56.578Z,25.86
2023-07-08T07:56:25.477Z,26.14
2023-07-08T07:58:53.622Z,26.29
2023-07-08T08:01:21.108Z,26.36
2023-07-08T08:03:51.944Z,26.54
2023-07-08T08:06:19.099Z,26.54
2023-07-08T08:08:46.480Z,26.70
2023-07-08T08:11:14.500Z,26.68
2023-07-08T08:13:41.343Z,26.75
2023-07-08T08:16:08.186Z,26.84
2023-07-08T08:18:35.307Z,26.82
2023-07-08T08:21:02.080Z,26.70
2023-07-08T08:23:29.193Z,26.68
2023-07-08T08:25:55.940Z,26.72
2023-07-08T08:28:23.221Z,26.67
2023-07-08T08:30:51.098Z,26.72
2023-07-08T08:33:19.572Z,26.82
2023-07-08T08:35:47.182Z,26.83
2023-07-08T08:38:14.103Z,26.87
2023-07-08T08:40:43.391Z,27.12
2023-07-08T08:43:23.718Z,27.17
2023-07-08T08:46:11.144Z,27.28
2023-07-08T08:48:50.836Z,27.43
2023-07-08T08:51:17.880Z,27.48
2023-07-08T08:53:47.070Z,27.74
2023-07-08T08:56:41.271Z,27.80
2023-07-08T08:59:27.689Z,27.91
2023-07-08T09:01:56.210Z,28.10
2023-07-08T09:04:30.420Z,28.14
2023-07-08T09:07:07.664Z,28.31
2023-07-08T09:09:50.834Z,28.47
2023-07-08T09:12:26.443Z,28.53
2023-07-08T09:14:53.105Z,28.85
2023-07-08T09:17:37.142Z,29.01
2023-07-08T09:20:05.068Z,29.01
2023-07-08T09:22:41.751Z,29.10
2023-07-08T09:25:29.973Z,29.24
2023-07-08T09:27:57.052Z,29.41
2023-07-08T09:30:25.983Z,29.36
2023-07-08T09:32:52.939Z,29.52
2023-07-08T09:35:26.842Z,29.45
2023-07-08T09:37:53.928Z,29.61
2023-07-08T09:40:22.759Z,29.62
2023-07-08T09:42:57.770Z,29.73
2023-07-08T09:45:25.904Z,30.04
2023-07-08T09:48:02.815Z,30.22
2023-07-08T09:50:32.953Z,30.29
2023-07-08T09:53:03.155Z,30.48
2023-07-08T09:55:30.042Z,30.56
2023-07-08T09:57:59.286Z,30.64
2023-07-08T10:00:41.371Z,30.88
2023-07-08T10:03:34.891Z,30.92
2023-07-08T10:06:15.571Z,30.94
2023-07-08T10:08:46.887Z,30.93
2023-07-08T10:11:35.580Z,30.97
2023-07-08T10:14:22.142Z,31.06
2023-07-08T10:16:48.826Z,31.37
2023-07-08T10:19:18.650Z,31.51
2023-07-08T10:21:52.131Z,31.57
2023-07-08T10:24:34.942Z,31.61
2023-07-08T10:27:33.785Z,31.63
2023-07-08T10:30:19.301Z,31.32
2023-07-08T10:33:16.420Z,31.64
2023-07-08T10:36:06.132Z,31.92
2023-07-08T10:38:47.979Z,32.00
2023-07-08T10:41:58.483Z,32.28
2023-07-08T10:44:31.051Z,32.47
2023-07-08T10:47:07.442Z,32.49
2023-07-08T10:49:50.625Z,32.48
2023-07-08T10:52:39.056Z,32.44
2023-07-08T10:55:08.969Z,32.54
2023-07-08T10:57:44.712Z,32.48
2023-07-08T11:00:28.694Z,32.69
2023-07-08T11:02:55.272Z,32.92
2023-07-08T11:05:41.355Z,32.89
2023-07-08T11:08:09.988Z,32.66
2023-07-08T11:11:13.880Z,32.73
2023-07-08T11:13:59.719Z,32.40
2023-07-08T11:16:38.093Z,32.51
2023-07-08T11:19:14.919Z,32.96
2023-07-08T11:21:47.379Z,33.34
2023-07-08T11:24:23.072Z,33.39
2023-07-08T11:27:11.514Z,33.58
2023-07-08T11:29:44.044Z,33.80
2023-07-08T11:32:16.123Z,33.85
2023-07-08T11:34:45.839Z,33.81
2023-07-08T11:37:14.603Z,33.94
2023-07-08T11:39:46.544Z,33.78
2023-07-08T11:42:37.616Z,33.11
2023-07-08T11:45:25.530Z,33.35
2023-07-08T11:47:52.252Z,33.66
2023-07-08T11:50:37.150Z,33.36
2023-07-08T11:53:08.854Z,33.59
2023-07-08T11:55:55.565Z,33.66
2023-07-08T11:58:24.793Z,33.76
2023-07-08T12:01:06.195Z,33.46
2023-07-08T12:03:38.729Z,33.51
2023-07-08T12:06:27.060Z,33.87
2023-07-08T12:09:14.235Z,34.15
2023-07-08T12:11:45.188Z,34.12
2023-07-08T12:14:12.345Z,34.17
2023-07-08T12:16:39.305Z,34.15
2023-07-08T12:19:10.342Z,33.97
2023-07-08T12:21:37.651Z,34.22
2023-07-08T12:24:06.382Z,34.28
2023-07-08T12:26:37.398Z,34.43
2023-07-08T12:29:04.118Z,34.48
2023-07-08T12:31:32.857Z,34.33
2023-07-08T12:33:59.967Z,34.29
2023-07-08T12:36:29.846Z,34.37
2023-07-08T12:38:58.931Z,34.41
2023-07-08T12:41:29.451Z,34.37
2023-07-08T12:43:56.600Z,34.60
2023-07-08T12:46:26.243Z,34.30
2023-07-08T12:48:53.547Z,34.46
2023-07-08T12:51:29.089Z,34.56
2023-07-08T12:53:56.463Z,34.32
2023-07-08T12:56:24.959Z,34.51
2023-07-08T12:58:54.632Z,34.60
2023-07-08T13:01:27.849Z,34.58
2023-07-08T13:04:00.161Z,34.76
2023-07-08T13:06:31.047Z,34.64
2023-07-08T13:09:09.472Z,34.72
2023-07-08T13:11:38.118Z,34.65
2023-07-08T13:14:07.959Z,34.82
2023-07-08T13:16:36.352Z,34.73
2023-07-08T13:19:04.314Z,34.50
2023-07-08T13:21:33.330Z,34.80
2023-07-08T13:24:00.128Z,34.73
2023-07-08T13:26:30.972Z,34.76
2023-07-08T13:29:17.959Z,35.08
2023-07-08T13:31:50.277Z,35.05
2023-07-08T13:34:19.879Z,34.94
2023-07-08T13:36:50.187Z,35.18
2023-07-08T13:39:33.639Z,35.33
2023-07-08T13:42:01.688Z,35.24
2023-07-08T13:44:28.829Z,35.06
2023-07-08T13:46:58.910Z,35.01
2023-07-08T13:49:32.345Z,35.02
2023-07-08T13:52:13.502Z,34.91
2023-07-08T13:54:45.319Z,34.94
2023-07-08T13:57:15.992Z,35.19
2023-07-08T13:59:42.983Z,34.99
2023-07-08T14:02:32.245Z,35.10
2023-07-08T14:05:00.914Z,35.35
2023-07-08T14:07:32.929Z,35.34
2023-07-08T14:09:59.710Z,35.13
2023-07-08T14:12:26.650Z,35.33
2023-07-08T14:14:53.477Z,35.18
2023-07-08T14:17:25.863Z,35.54
2023-07-08T14:19:53.066Z,35.06
2023-07-08T14:22:31.288Z,35.04
2023-07-08T14:25:05.666Z,35.36
2023-07-08T14:27:32.611Z,35.27
2023-07-08T14:29:59.060Z,35.47
2023-07-08T14:32:31.265Z,35.58
2023-07-08T14:35:20.120Z,35.66
2023-07-08T14:37:47.229Z,35.44
2023-07-08T14:40:21.222Z,35.62
2023-07-08T14:42:49.275Z,35.87
2023-07-08T14:45:17.367Z,35.92
2023-07-08T14:47:43.946Z,36.19
2023-07-08T14:50:15.725Z,35.74
2023-07-08T14:52:42.255Z,35.36
2023-07-08T14:55:10.933Z,35.46
2023-07-08T14:57:46.844Z,35.45
2023-07-08T15:00:19.141Z,35.16
2023-07-08T15:02:48.323Z,34.79
2023-07-08T15:05:25.449Z,34.14
2023-07-08T15:07:54.871Z,33.95
2023-07-08T15:10:25.925Z,33.39
2023-07-08T15:12:52.437Z,33.05
2023-07-08T15:15:31.110Z,32.65
2023-07-08T15:17:58.919Z,32.40
2023-07-08T15:20:26.292Z,32.25
2023-07-08T15:22:52.978Z,32.25
2023-07-08T15:25:20.276Z,32.27
2023-07-08T15:27:49.888Z,32.52
2023-07-08T15:30:20.233Z,33.13
2023-07-08T15:32:47.623Z,33.42
2023-07-08T15:35:19.823Z,33.76
2023-07-08T15:37:48.600Z,33.57
2023-07-08T15:40:18.269Z,33.53
2023-07-08T15:42:47.401Z,33.53
2023-07-08T15:45:16.767Z,33.12
2023-07-08T15:47:43.458Z,33.08
2023-07-08T15:50:16.076Z,32.90
2023-07-08T15:52:43.685Z,32.85
2023-07-08T15:55:12.704Z,32.67
2023-07-08T15:57:47.748Z,32.81
2023-07-08T16:00:21.920Z,33.18
2023-07-08T16:02:51.901Z,33.70
2023-07-08T16:05:20.650Z,33.94
2023-07-08T16:07:52.277Z,34.21
2023-07-08T16:10:19.184Z,34.61
2023-07-08T16:12:47.847Z,34.51
2023-07-08T16:15:17.160Z,34.66
2023-07-08T16:17:44.838Z,34.79
2023-07-08T16:20:21.708Z,34.53
2023-07-08T16:22:49.566Z,34.71
2023-07-08T16:25:18.423Z,34.64
2023-07-08T16:27:47.803Z,34.27
2023-07-08T16:30:17.369Z,33.90
2023-07-08T16:32:44.764Z,33.33
2023-07-08T16:35:15.876Z,32.78
2023-07-08T16:37:43.102Z,32.63
2023-07-08T16:40:21.215Z,32.57
2023-07-08T16:42:49.999Z,32.76
2023-07-08T16:45:19.257Z,32.95
2023-07-08T16:47:47.094Z,32.81
2023-07-08T16:50:16.706Z,32.78
2023-07-08T16:52:43.624Z,32.46
2023-07-08T16:55:16.252Z,32.28
2023-07-08T16:57:43.557Z,32.08
2023-07-08T17:00:16.539Z,31.84
2023-07-08T17:02:43.171Z,31.57
2023-07-08T17:05:31.785Z,31.33
2023-07-08T17:07:58.477Z,31.18
2023-07-08T17:10:25.367Z,30.98
2023-07-08T17:12:53.810Z,30.82
2023-07-08T17:15:22.955Z,30.72
2023-07-08T17:17:58.914Z,30.60
2023-07-08T17:20:30.278Z,30.41
2023-07-08T17:22:56.729Z,30.14
2023-07-08T17:25:25.565Z,29.95
2023-07-08T17:27:54.567Z,29.90
2023-07-08T17:30:22.390Z,29.69
2023-07-08T17:32:55.606Z,29.66
2023-07-08T17:35:26.080Z,29.58
2023-07-08T17:37:53.709Z,29.61
2023-07-08T17:40:22.612Z,29.59
2023-07-08T17:42:50.400Z,29.41
2023-07-08T17:45:20.335Z,29.38
2023-07-08T17:47:49.371Z,29.32
2023-07-08T17:50:18.665Z,29.21
2023-07-08T17:52:45.764Z,29.21
2023-07-08T17:55:12.921Z,29.03
2023-07-08T17:57:41.049Z,28.91
2023-07-08T18:00:15.002Z,28.84
2023-07-08T18:02:42.066Z,28.79
2023-07-08T18:05:21.619Z,28.94
2023-07-08T18:07:50.366Z,28.90
2023-07-08T18:10:19.008Z,28.87
2023-07-08T18:12:47.210Z,28.73
2023-07-08T18:15:28.756Z,28.54
2023-07-08T18:17:58.238Z,28.35
2023-07-08T18:20:37.230Z,28.29
2023-07-08T18:23:04.744Z,28.09
2023-07-08T18:25:36.016Z,27.80
2023-07-08T18:28:02.512Z,27.65
2023-07-08T18:30:30.280Z,27.65
2023-07-08T18:32:57.330Z,27.55
2023-07-08T18:35:29.530Z,27.39
2023-07-08T18:37:57.339Z,27.30
2023-07-08T18:40:37.685Z,27.34
2023-07-08T18:43:16.412Z,27.36
2023-07-08T18:45:43.345Z,27.35
2023-07-08T18:48:15.420Z,27.34
2023-07-08T18:50:44.343Z,27.28
2023-07-08T18:53:18.002Z,27.24
2023-07-08T18:55:46.051Z,27.26
2023-07-08T18:58:14.269Z,27.12
2023-07-08T19:00:42.424Z,27.03
2023-07-08T19:03:26.959Z,27.01
2023-07-08T19:05:54.778Z,26.89
2023-07-08T19:08:22.778Z,26.78
2023-07-08T19:10:55.669Z,26.72
2023-07-08T19:13:25.531Z,26.62
2023-07-08T19:15:53.569Z,26.57
2023-07-08T19:18:20.714Z,26.36
2023-07-08T19:20:48.872Z,26.22
2023-07-08T19:23:27.133Z,26.06
2023-07-08T19:25:54.385Z,26.00
2023-07-08T19:28:21.049Z,25.96
2023-07-08T19:30:53.584Z,26.01
2023-07-08T19:33:20.629Z,26.09
2023-07-08T19:35:48.183Z,26.04
2023-07-08T19:38:17.322Z,26.04
2023-07-08T19:40:52.904Z,25.95
2023-07-08T19:43:21.642Z,25.82
2023-07-08T19:45:48.506Z,25.74
2023-07-08T19:48:15.506Z,25.61
2023-07-08T19:50:42.239Z,25.50
2023-07-08T19:53:11.157Z,25.39
2023-07-08T19:55:38.417Z,25.44
2023-07-08T19:58:11.023Z,25.40
2023-07-08T20:00:44.400Z,25.46
2023-07-08T20:03:12.483Z,25.32
2023-07-08T20:05:39.996Z,25.21
2023-07-08T20:08:21.743Z,25.11
2023-07-08T20:10:55.153Z,25.06
2023-07-08T20:13:26.830Z,25.05
2023-07-08T20:15:53.329Z,25.05
2023-07-08T20:18:28.292Z,25.05
2023-07-08T20:20:58.952Z,25.00
2023-07-08T20:23:27.165Z,24.92
2023-07-08T20:25:54.323Z,24.94
2023-07-08T20:28:31.590Z,24.87
2023-07-08T20:31:04.487Z,24.74
2023-07-08T20:33:31.215Z,24.77
2023-07-08T20:35:57.783Z,24.63
2023-07-08T20:38:24.589Z,24.53
2023-07-08T20:40:51.156Z,24.53
2023-07-08T20:43:21.373Z,24.35
2023-07-08T20:45:54.729Z,24.39
2023-07-08T20:48:24.732Z,24.43
2023-07-08T20:50:52.174Z,24.43
2023-07-08T20:53:19.786Z,24.28
2023-07-08T20:55:48.272Z,24.20
2023-07-08T20:58:20.921Z,24.17
2023-07-08T21:00:48.420Z,24.17
2023-07-08T21:03:19.666Z,24.12
2023-07-08T21:05:52.640Z,24.06
2023-07-08T21:08:40.551Z,23.99
2023-07-08T21:11:08.259Z,23.97
2023-07-08T21:13:39.034Z,23.92
2023-07-08T21:16:15.896Z,23.88
2023-07-08T21:18:42.664Z,23.84
2023-07-08T21:21:11.653Z,24.03
2023-07-08T21:23:39.382Z,23.95
2023-07-08T21:26:17.005Z,23.91
2023-07-08T21:28:46.761Z,23.74
2023-07-08T21:31:14.346Z,23.73
2023-07-08T21:33:40.872Z,23.68
2023-07-08T21:36:22.021Z,23.62
2023-07-08T21:38:48.498Z,23.64
2023-07-08T21:41:15.532Z,23.48
2023-07-08T21:43:42.191Z,23.45
2023-07-08T21:46:09.102Z,23.42
2023-07-08T21:48:36.220Z,23.53
2023-07-08T21:51:03.447Z,23.43
2023-07-08T21:53:38.077Z,23.26
2023-07-08T21:56:05.173Z,23.18
2023-07-08T21:58:32.324Z,23.28
2023-07-08T22:00:58.882Z,23.38
2023-07-08T22:03:30.997Z,23.32
2023-07-08T22:05:59.093Z,23.27
2023-07-08T22:08:28.147Z,23.30
2023-07-08T22:10:58.482Z,23.35
2023-07-08T22:13:32.562Z,23.33
2023-07-08T22:16:14.801Z,23.27
2023-07-08T22:18:45.386Z,23.30
2023-07-08T22:21:31.705Z,23.25
2023-07-08T22:23:59.896Z,23.17
2023-07-08T22:26:27.659Z,23.11
2023-07-08T22:28:54.160Z,23.11
2023-07-08T22:31:23.741Z,23.10
2023-07-08T22:33:50.588Z,22.95
2023-07-08T22:36:17.150Z,22.99
2023-07-08T22:38:47.260Z,22.94
2023-07-08T22:41:13.822Z,22.89
2023-07-08T22:43:40.893Z,22.86
2023-07-08T22:46:09.812Z,22.81
2023-07-08T22:48:38.860Z,22.80
2023-07-08T22:51:05.924Z,22.75
2023-07-08T22:53:35.231Z,22.69
2023-07-08T22:56:03.349Z,22.70
2023-07-08T22:58:33.453Z,22.64
2023-07-08T23:01:00.281Z,22.72
2023-07-08T23:03:26.928Z,22.64
2023-07-08T23:05:59.623Z,22.66
2023-07-08T23:08:29.079Z,22.69
2023-07-08T23:10:56.011Z,22.68
2023-07-08T23:13:36.507Z,22.65
2023-07-08T23:16:23.966Z,22.62
2023-07-08T23:18:52.817Z,22.54
2023-07-08T23:21:21.073Z,22.53
2023-07-08T23:23:50.785Z,22.34
2023-07-08T23:26:21.214Z,22.20
2023-07-08T23:28:53.213Z,22.08
2023-07-08T23:31:20.120Z,21.98
2023-07-08T23:33:47.644Z,21.84
2023-07-08T23:36:39.276Z,21.70
2023-07-08T23:39:18.430Z,21.65
2023-07-08T23:41:45.684Z,21.58
2023-07-08T23:44:13.216Z,21.59
2023-07-08T23:46:40.814Z,21.47
2023-07-08T23:49:23.461Z,21.49
2023-07-08T23:51:50.597Z,21.47
2023-07-08T23:54:21.314Z,21.42
2023-07-08T23:56:47.954Z,21.42
2023-07-08T23:59:17.241Z,21.36
